Time;durP1;ratioP1;P1;durP2;ratioP2;P2;SDS_P1;SDS_P2;PMS_P1;PMS_P2;Temp;Humidity;BMP_temperature;BMP_pressure;BME280_temperature;BME280_humidity;BME280_pressure;Samples;Min_cycle;Max_cycle;Signal;HPM_P1;HPM_P2
2021/06/20 00:00:22;;;;;;;18.10;16.27;;;19.60;85.20;;;;;;5032267;28;20112;-91
2021/06/20 00:02:48;;;;;;;19.92;17.35;;;19.60;85.50;;;;;;5052167;28;20059;-90
2021/06/20 00:05:20;;;;;;;19.38;17.35;;;19.70;86.20;;;;;;5052833;28;20027;-90
2021/06/20 00:07:46;;;;;;;18.58;16.67;;;19.70;86.20;;;;;;5045222;28;20140;-87
2021/06/20 00:10:20;;;;;;;22.05;19.30;;;19.70;86.10;;;;;;5051324;28;20420;-88
2021/06/20 00:12:46;;;;;;;16.73;14.88;;;19.80;86.30;;;;;;5047919;28;20028;-89
2021/06/20 00:15:15;;;;;;;21.13;18.30;;;19.80;86.10;;;;;;5042429;28;20128;-89
2021/06/20 00:17:42;;;;;;;20.30;18.15;;;19.90;86.20;;;;;;5050157;28;20090;-88
2021/06/20 00:20:10;;;;;;;19.05;16.88;;;19.90;86.40;;;;;;5050290;28;20052;-88
2021/06/20 00:22:35;;;;;;;15.10;13.50;;;19.90;86.50;;;;;;5047529;28;20380;-89
2021/06/20 00:25:03;;;;;;;17.88;16.02;;;20.00;86.10;;;;;;5048439;28;20078;-88
2021/06/20 00:27:29;;;;;;;17.55;15.75;;;20.00;86.00;;;;;;5048562;28;20040;-87
2021/06/20 00:29:55;;;;;;;16.85;15.05;;;20.10;85.90;;;;;;5049624;28;20021;-91
2021/06/20 00:32:21;;;;;;;19.48;17.48;;;20.00;85.80;;;;;;5048060;28;20073;-89
2021/06/20 00:34:46;;;;;;;17.75;15.95;;;20.10;86.00;;;;;;5048965;28;20053;-89
2021/06/20 00:37:12;;;;;;;17.60;15.80;;;20.10;85.90;;;;;;5050875;28;20064;-88
2021/06/20 00:39:37;;;;;;;18.83;16.90;;;20.10;85.70;;;;;;5028133;28;20087;-89
2021/06/20 00:42:03;;;;;;;17.33;15.48;;;20.10;85.60;;;;;;5026719;28;20042;-88
2021/06/20 00:44:29;;;;;;;19.60;17.55;;;20.10;85.60;;;;;;5026392;28;20017;-88
2021/06/20 00:46:54;;;;;;;16.10;14.40;;;20.10;85.70;;;;;;5025392;28;20431;-89
2021/06/20 00:49:20;;;;;;;13.15;11.75;;;20.20;85.60;;;;;;5030726;28;20415;-90
2021/06/20 00:51:45;;;;;;;18.05;16.10;;;20.20;85.10;;;;;;5024178;28;20392;-89
2021/06/20 00:54:12;;;;;;;15.25;13.27;;;20.20;85.10;;;;;;5031263;28;20023;-89
2021/06/20 00:56:38;;;;;;;15.70;14.10;;;20.30;85.20;;;;;;5030809;28;20121;-89
2021/06/20 00:59:04;;;;;;;18.58;16.67;;;20.30;85.10;;;;;;5031175;28;20021;-88
2021/06/20 01:01:35;;;;;;;15.18;12.13;;;20.30;85.60;;;;;;5024558;28;20025;-90
2021/06/20 01:04:01;;;;;;;15.80;14.20;;;20.30;85.40;;;;;;5029900;28;20475;-89
2021/06/20 01:06:27;;;;;;;15.93;14.32;;;20.30;85.80;;;;;;5028247;28;20022;-88
2021/06/20 01:08:54;;;;;;;14.15;12.50;;;20.30;85.30;;;;;;5026733;28;20022;-87
2021/06/20 01:11:20;;;;;;;10.90;8.75;;;20.40;85.30;;;;;;5026938;28;20033;-88
2021/06/20 01:13:47;;;;;;;14.85;13.35;;;20.50;84.90;;;;;;5022391;28;20529;-89
2021/06/20 01:16:13;;;;;;;16.38;14.68;;;20.50;85.20;;;;;;5030160;28;20029;-88
2021/06/20 01:18:39;;;;;;;15.65;14.05;;;20.50;85.10;;;;;;5028233;28;20025;-89
2021/06/20 01:21:07;;;;;;;15.10;13.60;;;20.40;85.20;;;;;;5033961;28;20036;-87
2021/06/20 01:23:33;;;;;;;12.50;10.50;;;20.40;85.90;;;;;;5032121;28;20044;-88
2021/06/20 01:26:01;;;;;;;10.45;9.43;;;20.40;85.20;;;;;;5038123;28;20036;-90
2021/06/20 01:28:28;;;;;;;10.60;9.55;;;20.60;85.10;;;;;;5026218;28;20049;-88
2021/06/20 01:30:58;;;;;;;10.20;9.10;;;20.60;84.60;;;;;;5031731;28;20618;-90
2021/06/20 01:33:25;;;;;;;11.07;9.60;;;20.60;84.40;;;;;;5033383;28;20044;-89
2021/06/20 01:35:50;;;;;;;9.18;8.18;;;20.70;84.30;;;;;;5033629;28;20029;-90
2021/06/20 01:38:16;;;;;;;8.70;7.80;;;20.80;83.90;;;;;;5039173;28;20388;-89
2021/06/20 01:40:41;;;;;;;10.68;9.32;;;20.80;83.60;;;;;;5051689;28;20036;-89
2021/06/20 01:43:07;;;;;;;9.52;8.30;;;20.90;83.40;;;;;;5053356;28;20038;-89
2021/06/20 01:45:33;;;;;;;9.30;8.00;;;20.90;83.10;;;;;;5052354;28;20024;-89
2021/06/20 01:47:59;;;;;;;9.07;7.78;;;20.90;83.60;;;;;;5035331;28;20383;-88
2021/06/20 01:50:27;;;;;;;10.25;8.73;;;21.00;82.90;;;;;;5034067;28;20029;-89
2021/06/20 01:53:09;;;;;;;8.93;8.02;;;21.00;82.80;;;;;;5034165;28;20029;-90
2021/06/20 01:55:37;;;;;;;7.95;7.15;;;21.00;82.80;;;;;;5036134;28;20016;-90
2021/06/20 01:58:07;;;;;;;7.68;6.88;;;21.10;82.50;;;;;;5034083;28;20029;-89
2021/06/20 02:00:37;;;;;;;7.63;6.75;;;21.10;82.30;;;;;;5054731;28;20024;-89
2021/06/20 02:03:11;;;;;;;7.78;6.97;;;21.20;82.10;;;;;;5054671;28;20033;-90
2021/06/20 02:05:38;;;;;;;7.80;6.63;;;21.20;81.90;;;;;;5054136;28;20031;-89
2021/06/20 02:08:04;;;;;;;8.38;7.43;;;21.20;81.80;;;;;;5034719;28;20116;-87
2021/06/20 02:10:30;;;;;;;8.10;7.30;;;21.30;81.70;;;;;;5048604;28;20108;-88
2021/06/20 02:12:56;;;;;;;9.45;8.50;;;21.30;81.60;;;;;;5053766;28;20123;-89
2021/06/20 02:15:26;;;;;;;10.05;6.90;;;21.30;81.60;;;;;;5043475;28;20101;-89
2021/06/20 02:17:52;;;;;;;8.65;7.00;;;21.30;81.50;;;;;;5033860;28;20036;-89
2021/06/20 02:20:20;;;;;;;8.43;7.35;;;21.40;81.40;;;;;;5053652;28;20021;-89
2021/06/20 02:22:48;;;;;;;8.05;7.25;;;21.40;81.30;;;;;;5029574;28;20037;-88
2021/06/20 02:25:15;;;;;;;9.45;7.30;;;21.40;81.30;;;;;;5049099;28;20017;-87
2021/06/20 02:27:42;;;;;;;7.75;6.70;;;21.40;81.10;;;;;;5047073;28;20513;-88
2021/06/20 02:30:10;;;;;;;8.20;7.35;;;21.40;81.10;;;;;;5050530;28;20101;-88
2021/06/20 02:32:37;;;;;;;7.82;6.90;;;21.40;81.10;;;;;;5052079;28;20678;-89
2021/06/20 02:35:04;;;;;;;8.40;7.60;;;21.40;81.00;;;;;;5051644;28;20059;-90
2021/06/20 02:37:32;;;;;;;7.22;6.53;;;21.50;81.00;;;;;;5035565;28;20063;-90
2021/06/20 02:39:57;;;;;;;10.18;7.97;;;21.50;80.80;;;;;;5046717;28;20060;-91
2021/06/20 02:42:23;;;;;;;7.28;6.47;;;21.50;80.80;;;;;;5053525;28;20033;-91
2021/06/20 02:44:49;;;;;;;7.40;6.13;;;21.50;80.80;;;;;;5049819;28;20033;-92
2021/06/20 02:47:15;;;;;;;9.75;8.55;;;21.60;80.70;;;;;;5044355;28;20017;-91
2021/06/20 02:49:41;;;;;;;10.15;7.22;;;21.50;80.70;;;;;;5036562;28;20028;-90
2021/06/20 02:52:09;;;;;;;9.65;8.65;;;21.50;80.70;;;;;;5041279;28;20615;-90
2021/06/20 02:54:35;;;;;;;9.82;8.35;;;21.50;80.80;;;;;;5036396;28;20021;-90
2021/06/20 02:57:00;;;;;;;11.40;10.13;;;21.50;80.90;;;;;;5033059;28;20029;-91
2021/06/20 02:59:26;;;;;;;13.40;11.88;;;21.50;81.00;;;;;;5040138;28;20017;-91
2021/06/20 03:01:52;;;;;;;11.95;10.55;;;21.40;81.20;;;;;;5034052;28;20079;-89
2021/06/20 03:04:18;;;;;;;17.23;15.43;;;21.40;81.30;;;;;;5047058;28;20017;-88
2021/06/20 03:06:44;;;;;;;15.35;12.95;;;21.40;81.70;;;;;;5048232;28;20032;-88
2021/06/20 03:09:13;;;;;;;11.35;10.15;;;21.30;82.10;;;;;;5034846;28;20017;-89
2021/06/20 03:11:44;;;;;;;12.75;11.40;;;21.30;82.60;;;;;;5031928;28;20455;-87
2021/06/20 03:14:13;;;;;;;9.95;8.95;;;21.30;81.90;;;;;;5043780;28;20040;-88
2021/06/20 03:16:39;;;;;;;10.18;9.07;;;21.40;82.40;;;;;;5030933;28;20037;-89
2021/06/20 03:19:05;;;;;;;14.07;12.57;;;21.40;81.70;;;;;;5044090;28;20024;-86
2021/06/20 03:21:31;;;;;;;10.25;8.25;;;21.40;81.70;;;;;;5044962;28;20025;-87
2021/06/20 03:23:56;;;;;;;11.93;9.32;;;21.40;81.70;;;;;;5040068;28;20059;-87
2021/06/20 03:26:22;;;;;;;14.52;12.52;;;21.40;81.60;;;;;;5049192;28;20049;-90
2021/06/20 03:28:48;;;;;;;15.32;13.70;;;21.40;81.70;;;;;;5050461;28;20048;-91
2021/06/20 03:31:17;;;;;;;16.95;14.32;;;21.30;82.20;;;;;;5052975;28;20017;-89
2021/06/20 03:33:43;;;;;;;16.83;14.65;;;21.30;82.30;;;;;;5047633;28;20033;-89
2021/06/20 03:36:08;;;;;;;18.90;16.05;;;21.20;82.30;;;;;;5032879;28;20395;-89
2021/06/20 03:38:34;;;;;;;17.52;14.88;;;21.10;82.70;;;;;;5050635;28;20076;-87
2021/06/20 03:41:00;;;;;;;15.48;12.40;;;21.10;82.90;;;;;;5048455;28;20024;-89
2021/06/20 03:43:25;;;;;;;16.40;14.25;;;21.10;82.80;;;;;;5031711;28;20439;-89
2021/06/20 03:45:51;;;;;;;15.30;13.70;;;21.10;82.80;;;;;;5050031;28;20052;-87
2021/06/20 03:48:16;;;;;;;15.48;13.80;;;21.00;82.70;;;;;;5051098;28;20128;-88
2021/06/20 03:50:42;;;;;;;15.07;12.10;;;20.90;82.60;;;;;;5031917;28;20112;-88
2021/06/20 03:53:07;;;;;;;17.05;15.00;;;20.90;82.80;;;;;;5048840;28;20475;-88
2021/06/20 03:55:33;;;;;;;15.93;13.63;;;20.80;82.80;;;;;;5050402;28;20066;-88
2021/06/20 03:58:01;;;;;;;16.05;14.00;;;20.70;82.90;;;;;;5047976;28;20044;-87
2021/06/20 04:00:27;;;;;;;11.57;10.38;;;20.60;82.90;;;;;;5031261;28;20075;-88
2021/06/20 04:02:52;;;;;;;20.48;17.38;;;20.60;83.00;;;;;;5046709;28;20076;-88
2021/06/20 04:05:18;;;;;;;14.82;12.93;;;20.60;83.00;;;;;;5050476;28;20135;-88
2021/06/20 04:07:43;;;;;;;16.50;14.80;;;20.60;83.00;;;;;;5049740;28;20033;-88
2021/06/20 04:10:10;;;;;;;15.18;13.55;;;20.50;83.00;;;;;;5044693;28;20025;-87
2021/06/20 04:12:35;;;;;;;17.15;15.07;;;20.40;83.20;;;;;;5049990;28;20033;-89
2021/06/20 04:15:01;;;;;;;16.33;13.45;;;20.30;83.30;;;;;;5050784;28;20096;-89
2021/06/20 04:17:29;;;;;;;14.38;12.73;;;20.20;83.40;;;;;;5051193;28;20091;-89
2021/06/20 04:19:54;;;;;;;13.05;11.63;;;20.20;83.60;;;;;;5049313;28;20031;-90
2021/06/20 04:22:20;;;;;;;9.95;8.90;;;20.10;83.60;;;;;;5045940;28;20425;-90
2021/06/20 04:24:46;;;;;;;15.32;13.10;;;20.10;83.80;;;;;;5043243;28;20064;-92
2021/06/20 04:27:13;;;;;;;10.95;9.30;;;20.00;83.70;;;;;;5050551;28;20144;-90
2021/06/20 04:29:39;;;;;;;10.60;9.23;;;20.00;83.90;;;;;;5047489;28;20043;-91
2021/06/20 04:32:05;;;;;;;14.27;11.88;;;20.00;83.80;;;;;;5030697;28;20025;-89
2021/06/20 04:34:30;;;;;;;11.27;9.95;;;19.90;83.70;;;;;;5048741;28;20070;-91
2021/06/20 04:36:56;;;;;;;14.95;12.57;;;20.00;83.70;;;;;;5052060;28;20047;-92
2021/06/20 04:39:21;;;;;;;12.40;11.00;;;19.90;83.60;;;;;;5033895;28;20036;-89
2021/06/20 04:41:47;;;;;;;11.48;9.10;;;19.90;83.60;;;;;;5049961;28;20112;-89
2021/06/20 04:46:57;;;;;;;13.25;9.57;;;19.90;83.40;;;;;;5049888;28;20509;-88
2021/06/20 04:49:22;;;;;;;15.05;12.50;;;19.90;83.40;;;;;;5047255;28;20025;-89
2021/06/20 04:51:48;;;;;;;11.15;9.63;;;19.90;83.40;;;;;;5047393;28;20060;-88
2021/06/20 04:54:14;;;;;;;10.73;8.68;;;19.90;83.40;;;;;;5054395;28;20475;-87
2021/06/20 04:56:41;;;;;;;14.18;10.73;;;19.90;83.30;;;;;;5047463;28;20021;-88
2021/06/20 04:59:07;;;;;;;12.50;10.80;;;20.00;83.20;;;;;;5048725;28;20021;-87
2021/06/20 05:01:37;;;;;;;16.13;12.65;;;20.00;83.20;;;;;;5048135;28;20024;-87
2021/06/20 05:04:04;;;;;;;13.50;10.45;;;19.90;83.10;;;;;;5049451;28;20033;-87
2021/06/20 05:06:30;;;;;;;13.50;10.75;;;19.90;83.10;;;;;;5049388;28;20472;-85
2021/06/20 05:08:55;;;;;;;15.75;12.95;;;20.00;83.00;;;;;;5030604;28;20043;-86
2021/06/20 05:11:21;;;;;;;16.00;12.40;;;20.00;83.10;;;;;;5045850;28;20029;-85
2021/06/20 05:13:46;;;;;;;13.60;11.15;;;20.00;83.10;;;;;;5027872;28;20043;-85
2021/06/20 05:16:12;;;;;;;9.82;8.38;;;20.00;83.00;;;;;;5047776;28;20183;-85
2021/06/20 05:18:38;;;;;;;18.80;15.30;;;20.00;82.90;;;;;;5045834;28;20024;-85
2021/06/20 05:21:04;;;;;;;12.30;9.13;;;20.00;83.00;;;;;;5044767;28;20029;-85
2021/06/20 05:23:30;;;;;;;10.80;8.32;;;20.00;83.00;;;;;;5045521;28;20439;-85
2021/06/20 05:25:56;;;;;;;14.05;11.60;;;20.00;82.90;;;;;;5047600;28;20036;-86
2021/06/20 05:28:21;;;;;;;14.25;9.85;;;20.00;82.90;;;;;;5046133;28;20498;-87
2021/06/20 05:30:48;;;;;;;12.23;9.05;;;20.00;82.90;;;;;;5048164;28;20099;-87
2021/06/20 05:33:16;;;;;;;12.05;9.48;;;20.00;82.90;;;;;;5046659;28;20017;-87
2021/06/20 05:35:42;;;;;;;14.13;10.57;;;20.00;82.80;;;;;;5047360;28;20071;-85
2021/06/20 05:38:08;;;;;;;15.23;11.68;;;20.10;82.70;;;;;;5041662;28;20052;-87
2021/06/20 05:40:35;;;;;;;18.95;14.55;;;20.00;82.70;;;;;;5047154;28;20032;-90
2021/06/20 05:43:01;;;;;;;17.42;13.95;;;20.00;82.70;;;;;;5077697;23;20447;-92
2021/06/20 05:45:27;;;;;;;19.05;14.68;;;20.00;82.90;;;;;;5009919;28;20026;-91
2021/06/20 05:47:52;;;;;;;19.77;15.63;;;19.90;83.00;;;;;;5008808;28;20108;-92
2021/06/20 05:50:18;;;;;;;19.45;15.55;;;19.90;83.10;;;;;;5010911;28;20018;-91
2021/06/20 05:52:43;;;;;;;21.90;16.88;;;19.90;83.20;;;;;;5010523;28;20403;-92
2021/06/20 05:55:09;;;;;;;24.13;18.63;;;19.90;83.30;;;;;;5083171;22;20048;-92
2021/06/20 05:57:35;;;;;;;23.23;18.33;;;19.80;83.50;;;;;;5008786;28;20465;-92
2021/06/20 06:00:00;;;;;;;22.17;17.55;;;19.80;83.70;;;;;;5010895;28;20116;-93
2021/06/20 06:02:26;;;;;;;22.88;18.00;;;19.80;83.80;;;;;;5009455;28;20041;-91
2021/06/20 06:04:51;;;;;;;21.63;16.55;;;19.80;83.80;;;;;;5010681;28;20022;-90
2021/06/20 06:07:17;;;;;;;19.13;13.75;;;19.80;83.80;;;;;;5013745;28;20499;-92
2021/06/20 06:09:42;;;;;;;25.42;19.83;;;19.90;83.80;;;;;;5009921;28;20472;-88
2021/06/20 06:12:08;;;;;;;25.88;20.10;;;19.90;83.80;;;;;;5007149;28;20030;-90
2021/06/20 06:14:34;;;;;;;24.50;19.77;;;19.90;83.80;;;;;;5017236;28;20036;-94
2021/06/20 06:17:00;;;;;;;24.77;19.23;;;19.80;83.90;;;;;;5009565;28;20022;-88
2021/06/20 06:19:25;;;;;;;28.10;20.13;;;19.80;84.00;;;;;;5013153;28;20026;-90
2021/06/20 06:21:51;;;;;;;32.08;24.42;;;19.80;84.10;;;;;;5014719;28;20036;-96
2021/06/20 06:24:17;;;;;;;32.67;25.42;;;19.90;84.30;;;;;;5017487;28;20133;-94
2021/06/20 06:26:43;;;;;;;27.65;21.50;;;19.90;84.40;;;;;;5010389;28;20037;-96
2021/06/20 06:29:09;;;;;;;22.20;16.75;;;19.90;84.30;;;;;;5021003;28;20036;-95
2021/06/20 06:31:36;;;;;;;24.63;19.15;;;20.00;84.20;;;;;;5017212;28;20064;-92
2021/06/20 06:34:02;;;;;;;23.73;18.75;;;20.00;84.00;;;;;;5018556;28;20069;-92
2021/06/20 06:36:28;;;;;;;23.20;17.90;;;20.00;84.00;;;;;;5020518;28;20103;-94
2021/06/20 06:38:54;;;;;;;20.75;14.68;;;20.00;84.00;;;;;;5017639;28;20533;-95
2021/06/20 06:41:19;;;;;;;26.38;19.55;;;20.00;83.80;;;;;;5014955;28;20034;-94
2021/06/20 06:43:46;;;;;;;21.33;16.25;;;20.00;83.60;;;;;;5012529;28;20038;-95
2021/06/20 06:46:12;;;;;;;17.15;13.07;;;20.10;83.50;;;;;;5020379;28;20025;-95
2021/06/20 06:48:37;;;;;;;29.30;21.63;;;20.10;83.30;;;;;;5014003;28;20049;-94
2021/06/20 06:51:04;;;;;;;26.02;19.52;;;20.10;82.90;;;;;;5022832;28;20029;-96
2021/06/20 06:53:30;;;;;;;22.20;16.33;;;20.20;82.70;;;;;;5021461;28;20030;-95
2021/06/20 06:55:57;;;;;;;18.10;13.82;;;20.30;82.50;;;;;;5022791;28;20060;-94
2021/06/20 06:58:22;;;;;;;18.95;15.15;;;20.40;82.30;;;;;;5009367;28;20026;-93
2021/06/20 07:00:48;;;;;;;27.05;21.00;;;20.40;82.10;;;;;;5019901;28;20033;-92
2021/06/20 07:03:14;;;;;;;21.67;16.30;;;20.40;81.90;;;;;;4999616;28;20038;-93
2021/06/20 07:05:39;;;;;;;19.45;14.80;;;20.50;81.70;;;;;;4997994;28;20753;-92
2021/06/20 07:08:05;;;;;;;23.42;18.80;;;20.40;81.70;;;;;;5002475;28;20479;-92
2021/06/20 07:10:31;;;;;;;21.67;17.33;;;20.40;81.50;;;;;;5024813;28;20113;-96
2021/06/20 07:12:57;;;;;;;22.65;18.48;;;20.40;81.40;;;;;;5017554;28;20033;-96
2021/06/20 07:15:22;;;;;;;15.38;12.15;;;20.40;81.40;;;;;;4999621;28;20034;-96
2021/06/20 07:17:48;;;;;;;23.13;17.98;;;20.40;81.40;;;;;;5000171;28;20048;-96
2021/06/20 07:20:15;;;;;;;20.25;15.55;;;20.40;81.30;;;;;;4999887;28;20509;-96
2021/06/20 07:22:42;;;;;;;21.27;17.23;;;20.40;81.30;;;;;;4998086;28;20029;-96
2021/06/20 07:25:08;;;;;;;22.60;17.48;;;20.40;81.00;;;;;;4995437;28;20400;-96
2021/06/20 07:27:35;;;;;;;22.77;17.95;;;20.50;80.90;;;;;;5013963;28;20014;-96
2021/06/20 07:30:08;;;;;;;21.60;17.70;;;20.60;80.50;;;;;;4995823;28;20026;-96
2021/06/20 07:32:33;;;;;;;15.27;12.65;;;20.70;80.10;;;;;;5012296;28;20033;-96
2021/06/20 07:34:59;;;;;;;18.33;13.68;;;20.70;80.00;;;;;;5012815;28;20029;-96
2021/06/20 07:37:25;;;;;;;14.93;12.43;;;20.80;79.80;;;;;;5000397;28;20018;-92
2021/06/20 07:39:50;;;;;;;18.92;15.30;;;20.90;79.80;;;;;;5008056;28;20547;-94
2021/06/20 07:42:16;;;;;;;17.13;13.48;;;20.80;79.40;;;;;;5012378;28;20100;-90
2021/06/20 07:44:41;;;;;;;13.45;11.00;;;20.80;79.20;;;;;;5011954;28;20030;-91
2021/06/20 07:47:07;;;;;;;13.52;10.32;;;20.90;79.00;;;;;;4993602;28;20134;-90
2021/06/20 07:49:33;;;;;;;20.80;16.27;;;21.00;79.00;;;;;;5012801;28;20032;-88
2021/06/20 07:51:58;;;;;;;19.10;14.48;;;21.00;78.90;;;;;;4990191;28;20050;-89
2021/06/20 07:54:24;;;;;;;22.17;16.58;;;21.10;78.70;;;;;;5011083;28;20072;-89
2021/06/20 07:56:49;;;;;;;14.48;11.75;;;21.20;78.20;;;;;;4993651;28;20030;-88
2021/06/20 07:59:15;;;;;;;16.48;13.13;;;21.20;78.70;;;;;;5009953;28;20032;-89
2021/06/20 08:01:42;;;;;;;17.58;14.20;;;21.20;77.70;;;;;;5010557;28;20088;-89
2021/06/20 08:04:08;;;;;;;15.38;11.45;;;21.20;77.50;;;;;;4995916;28;20051;-91
2021/06/20 08:06:33;;;;;;;12.88;10.35;;;21.20;77.40;;;;;;5013352;28;20076;-90
2021/06/20 08:08:59;;;;;;;11.65;9.55;;;21.30;77.40;;;;;;4995867;28;20057;-91
2021/06/20 08:11:26;;;;;;;12.85;10.27;;;21.30;77.30;;;;;;5015347;28;20061;-96
2021/06/20 08:14:03;;;;;;;13.43;9.10;;;21.30;77.00;;;;;;5017597;28;20057;-96
2021/06/20 08:16:29;;;;;;;12.55;9.35;;;21.30;77.10;;;;;;5010701;28;20024;-96
2021/06/20 08:18:55;;;;;;;9.82;7.53;;;21.30;77.20;;;;;;5014996;28;20022;-96
2021/06/20 08:21:22;;;;;;;9.68;7.78;;;21.30;77.10;;;;;;5022483;28;20112;-96
2021/06/20 08:23:49;;;;;;;13.30;9.45;;;21.30;77.10;;;;;;5003077;28;20034;-96
2021/06/20 08:26:17;;;;;;;12.40;9.38;;;21.30;77.10;;;;;;5019659;28;20048;-96
2021/06/20 08:28:43;;;;;;;12.20;9.10;;;21.30;77.20;;;;;;4997864;28;20503;-96
2021/06/20 08:33:43;;;;;;;14.30;10.20;;;21.30;77.20;;;;;;5078060;28;20044;-93
2021/06/20 08:36:10;;;;;;;10.75;8.15;;;21.30;77.10;;;;;;5071587;28;20052;-91
2021/06/20 08:38:39;;;;;;;12.68;10.43;;;21.30;77.20;;;;;;5083665;28;20111;-96
2021/06/20 08:41:40;;;;;;;10.38;7.35;;;21.40;77.10;;;;;;5071155;28;20025;-96
2021/06/20 08:44:26;;;;;;;18.60;12.93;;;21.40;77.00;;;;;;5062353;28;20032;-96
2021/06/20 08:47:00;;;;;;;14.48;10.85;;;21.30;76.90;;;;;;5058416;28;20100;-96
2021/06/20 08:49:28;;;;;;;17.85;11.88;;;21.40;76.90;;;;;;5083772;28;20059;-96
2021/06/20 08:52:05;;;;;;;13.13;10.43;;;21.40;76.80;;;;;;5052656;28;20016;-95
2021/06/20 08:54:37;;;;;;;13.23;10.40;;;21.40;76.70;;;;;;5083579;28;20034;-96
2021/06/20 08:57:07;;;;;;;15.00;11.07;;;21.40;76.70;;;;;;5071361;28;20054;-96
2021/06/20 08:59:35;;;;;;;13.85;10.30;;;21.40;76.70;;;;;;5104185;28;20091;-96
2021/06/20 09:02:01;;;;;;;13.68;9.80;;;21.40;76.60;;;;;;5143706;23;20044;-96
2021/06/20 09:04:34;;;;;;;14.35;9.90;;;21.30;76.40;;;;;;5095309;23;20041;-96
2021/06/20 09:07:04;;;;;;;14.65;10.32;;;21.30;76.40;;;;;;5038529;28;20029;-96
2021/06/20 09:12:14;;;;;;;15.70;10.43;;;21.30;76.20;;;;;;5091163;23;20044;-89
2021/06/20 09:14:50;;;;;;;16.98;11.90;;;21.40;76.10;;;;;;5069512;28;20036;-95
2021/06/20 09:17:26;;;;;;;11.82;8.20;;;21.50;75.50;;;;;;5060137;28;20028;-95
2021/06/20 09:19:59;;;;;;;11.45;8.18;;;21.60;75.30;;;;;;5062652;28;20088;-95
2021/06/20 09:22:27;;;;;;;13.35;9.35;;;21.70;75.20;;;;;;5052242;28;20043;-95
2021/06/20 09:25:03;;;;;;;14.25;10.30;;;21.80;74.70;;;;;;5072951;28;20025;-93
2021/06/20 09:27:29;;;;;;;13.27;10.02;;;21.80;74.40;;;;;;5051999;28;20035;-93
2021/06/20 09:30:16;;;;;;;13.57;10.10;;;21.90;74.10;;;;;;5072298;28;20021;-95
2021/06/20 09:33:14;;;;;;;12.27;9.02;;;22.10;73.80;;;;;;5065529;28;20076;-93
2021/06/20 09:35:52;;;;;;;11.77;9.60;;;22.40;73.30;;;;;;5027753;28;20130;-95
2021/06/20 09:38:40;;;;;;;10.77;7.70;;;22.60;72.50;;;;;;5051926;28;20436;-93
2021/06/20 09:41:12;;;;;;;8.77;6.88;;;22.70;72.00;;;;;;5055284;28;20029;-94
2021/06/20 09:43:58;;;;;;;10.98;8.82;;;23.00;71.60;;;;;;5048721;28;20037;-94
2021/06/20 09:46:24;;;;;;;9.98;7.50;;;23.00;71.10;;;;;;5062030;28;20036;-94
2021/06/20 09:48:50;;;;;;;10.35;7.93;;;23.10;71.10;;;;;;5047636;28;20033;-91
2021/06/20 09:51:26;;;;;;;10.88;8.13;;;23.10;70.80;;;;;;5049873;28;20021;-91
2021/06/20 09:53:52;;;;;;;15.50;12.20;;;23.20;70.10;;;;;;5044208;28;20024;-91
2021/06/20 09:56:24;;;;;;;13.60;10.20;;;23.30;68.90;;;;;;5063811;28;20082;-94
2021/06/20 09:58:58;;;;;;;10.55;8.10;;;23.40;68.70;;;;;;5054771;28;20036;-94
2021/06/20 10:01:31;;;;;;;12.18;9.25;;;23.60;68.30;;;;;;5073840;28;20023;-96
2021/06/20 10:04:00;;;;;;;11.65;7.97;;;23.80;67.80;;;;;;5050708;28;20064;-96
2021/06/20 10:06:27;;;;;;;10.00;7.88;;;23.90;67.20;;;;;;5064357;28;20159;-94
2021/06/20 10:08:52;;;;;;;8.38;6.72;;;24.00;67.10;;;;;;5054722;28;20020;-96
2021/06/20 10:11:18;;;;;;;8.30;6.22;;;24.10;66.80;;;;;;5069962;28;20025;-96
2021/06/20 10:13:47;;;;;;;12.88;9.73;;;24.40;66.80;;;;;;5052517;28;20120;-96
2021/06/20 10:16:28;;;;;;;10.23;8.32;;;24.50;65.40;;;;;;5073216;28;20029;-96
2021/06/20 10:19:02;;;;;;;8.93;6.95;;;24.60;64.80;;;;;;5059826;28;20037;-96
2021/06/20 10:21:35;;;;;;;10.73;6.78;;;24.70;65.10;;;;;;5131257;23;20033;-96
2021/06/20 10:24:14;;;;;;;7.82;5.68;;;24.80;64.60;;;;;;5408540;23;20053;-96
2021/06/20 10:29:37;;;;;;;7.63;5.78;;;24.70;64.10;;;;;;5139695;23;20053;-95
2021/06/20 10:32:23;;;;;;;8.13;6.50;;;24.90;64.40;;;;;;4997646;28;20014;-96
2021/06/20 10:35:00;;;;;;;8.15;6.47;;;24.90;63.90;;;;;;4998309;28;20044;-94
2021/06/20 10:37:32;;;;;;;7.40;5.75;;;24.80;63.50;;;;;;4994434;28;20351;-95
2021/06/20 10:39:58;;;;;;;8.30;6.57;;;24.90;64.20;;;;;;4999271;28;20025;-92
2021/06/20 10:42:40;;;;;;;6.10;4.70;;;24.90;63.80;;;;;;5009279;28;20028;-94
2021/06/20 10:45:46;;;;;;;5.40;3.95;;;24.90;64.00;;;;;;5013388;28;20034;-91
2021/06/20 10:48:23;;;;;;;6.47;4.97;;;25.00;63.90;;;;;;4995867;28;20021;-93
2021/06/20 10:50:54;;;;;;;6.55;4.75;;;25.20;63.30;;;;;;4998057;28;20038;-94
2021/06/20 10:53:23;;;;;;;6.10;5.18;;;25.20;62.60;;;;;;5013591;28;20030;-93
2021/06/20 10:55:52;;;;;;;7.10;4.88;;;25.10;61.70;;;;;;4994588;28;20029;-93
2021/06/20 10:58:23;;;;;;;7.47;5.40;;;25.10;61.50;;;;;;5011174;28;20467;-93
2021/06/20 11:00:52;;;;;;;4.93;3.63;;;25.20;61.40;;;;;;4993133;28;20053;-94
2021/06/20 11:03:27;;;;;;;6.35;4.93;;;25.30;61.60;;;;;;4995813;28;20065;-94
2021/06/20 11:06:19;;;;;;;7.45;6.35;;;25.40;61.00;;;;;;4995087;28;20026;-94
2021/06/20 11:09:34;;;;;;;6.22;4.68;;;25.60;60.30;;;;;;4993296;28;20046;-95
2021/06/20 11:12:05;;;;;;;7.43;5.63;;;25.70;60.70;;;;;;4952028;29;20033;-95
2021/06/20 11:14:49;;;;;;;5.60;4.95;;;25.90;59.80;;;;;;4955562;28;20027;-95
2021/06/20 11:17:15;;;;;;;5.38;4.78;;;25.80;59.80;;;;;;4992756;28;20496;-89
2021/06/20 11:19:42;;;;;;;4.82;3.90;;;25.70;59.20;;;;;;5014916;28;20036;-90
2021/06/20 11:22:10;;;;;;;5.95;4.88;;;25.70;59.20;;;;;;5003089;28;20022;-94
2021/06/20 11:24:46;;;;;;;5.50;4.30;;;25.60;58.80;;;;;;5012904;28;20500;-93
2021/06/20 11:27:21;;;;;;;4.43;3.83;;;25.70;59.10;;;;;;5010670;28;20030;-94
2021/06/20 11:29:52;;;;;;;4.13;3.58;;;25.70;59.10;;;;;;4996680;28;20053;-96
2021/06/20 11:32:31;;;;;;;4.43;3.08;;;25.70;59.10;;;;;;5004110;28;20018;-96
2021/06/20 11:34:59;;;;;;;4.45;3.83;;;25.90;59.20;;;;;;5018190;28;20022;-95
2021/06/20 11:37:28;;;;;;;5.55;4.60;;;26.00;58.90;;;;;;4997390;28;20022;-93
2021/06/20 11:40:18;;;;;;;4.25;3.38;;;25.80;58.20;;;;;;5014923;28;20495;-92
2021/06/20 11:42:54;;;;;;;5.15;4.20;;;25.80;58.50;;;;;;4991258;28;20041;-92
2021/06/20 11:45:22;;;;;;;5.07;4.05;;;25.90;58.30;;;;;;4993965;28;20029;-94
2021/06/20 11:47:52;;;;;;;6.07;5.07;;;26.10;58.00;;;;;;5017312;28;20033;-96
2021/06/20 11:50:26;;;;;;;3.72;3.33;;;26.30;57.20;;;;;;5014249;28;20030;-96
2021/06/20 11:52:58;;;;;;;5.97;4.13;;;26.50;57.40;;;;;;4993288;28;20072;-96
2021/06/20 11:55:25;;;;;;;;;;;26.70;57.10;;;;;;5005639;28;20018;-96
2021/06/20 11:57:54;;;;;;;5.45;4.32;;;26.90;57.20;;;;;;5004976;28;20001;-96
2021/06/20 12:00:25;;;;;;;5.07;3.88;;;26.90;56.40;;;;;;5001442;28;20095;-96
2021/06/20 12:03:06;;;;;;;3.70;3.20;;;26.90;56.10;;;;;;4994468;28;20038;-96
2021/06/20 12:05:34;;;;;;;4.90;4.22;;;26.80;56.00;;;;;;5012749;28;20033;-96
2021/06/20 12:08:02;;;;;;;4.45;3.15;;;26.80;55.60;;;;;;5011999;28;20083;-96
2021/06/20 12:10:29;;;;;;;4.63;3.88;;;26.80;55.70;;;;;;4999297;28;20018;-96
2021/06/20 12:13:03;;;;;;;2.90;2.58;;;27.00;55.40;;;;;;5018921;28;20022;-96
2021/06/20 12:15:31;;;;;;;2.78;2.33;;;27.30;54.70;;;;;;5010823;28;20029;-96
2021/06/20 12:17:57;;;;;;;3.15;2.40;;;27.40;54.10;;;;;;5013341;28;20022;-96
2021/06/20 12:20:37;;;;;;;2.70;2.28;;;27.40;54.20;;;;;;5012134;28;20037;-96
2021/06/20 12:23:05;;;;;;;2.88;2.45;;;27.50;54.20;;;;;;4994986;28;20030;-96
2021/06/20 12:25:42;;;;;;;4.70;3.47;;;27.50;53.70;;;;;;5012028;28;20018;-94
2021/06/20 12:28:12;;;;;;;2.88;2.50;;;27.30;52.50;;;;;;5009524;28;20115;-95
2021/06/20 12:30:40;;;;;;;3.22;2.47;;;27.20;53.20;;;;;;4991495;28;20042;-94
2021/06/20 12:33:15;;;;;;;3.33;2.63;;;27.10;53.30;;;;;;4992768;28;20263;-94
2021/06/20 12:35:43;;;;;;;2.13;1.92;;;27.10;53.30;;;;;;4993304;28;20108;-95
2021/06/20 12:38:17;;;;;;;2.15;1.80;;;27.00;53.50;;;;;;4999836;28;20030;-91
2021/06/20 12:40:44;;;;;;;2.50;2.30;;;27.20;53.70;;;;;;5016836;28;20049;-96
2021/06/20 12:43:22;;;;;;;4.20;3.70;;;27.50;53.50;;;;;;5009967;28;20026;-95
2021/06/20 12:46:22;;;;;;;3.42;2.90;;;27.70;51.80;;;;;;4996349;28;20034;-96
2021/06/20 13:06:58;;;;;;;3.10;2.10;;;28.40;50.70;;;;;;5785446;23;20054;-95
2021/06/20 13:09:23;;;;;;;3.50;3.15;;;28.40;51.10;;;;;;5003993;28;20034;-95
2021/06/20 13:11:49;;;;;;;3.40;2.38;;;28.10;50.60;;;;;;4989188;28;20416;-96